Whitmore Hot Springs, California
Current Conditions -  °F | °C
As of 1:55 PM on Thursday 27 Nov 2014 (Local Time) from KMMH Reporting Station
Clear Clear  
Wind Chill: 66°   Ceiling: Unl
Heat Index: 66°   Visibility: 10mi
Dew Point:   Wind: 15mph
Humidity: 10%   Direction: 240°WSW
Pressure: 30.32"   Gusts: 24mph
Location:  37.63°N, 118.81°W
Report Text: KMMH 272155Z AUTO 24013G21KT 210V270 10SM CLR 19/M14 A3032 RMK AO1
Loading
Personal Weather Stations






























Interactive Weather Map New forecast layout! Learn more

10-Day Weather Forecast

Advertisements
Track Severe Weather on mobile